Time;durP1;ratioP1;P1;durP2;ratioP2;P2;SDS_P1;SDS_P2;PMS_P1;PMS_P2;Temp;Humidity;BMP_temperature;BMP_pressure;BME280_temperature;BME280_humidity;BME280_pressure;Samples;Min_cycle;Max_cycle;Signal;HPM_P1;HPM_P2
2023/12/07 18:02:25;;;;;;;;;5.33;4.00;;;;;19.49;41.91;100360.72;5595489;23;45409;-71
2023/12/07 18:04:50;;;;;;;;;29.75;26.00;;;;;19.49;41.76;100360.72;4933856;28;47142;-70
2023/12/07 18:07:15;;;;;;;;;42.50;32.75;;;;;19.43;41.86;100349.03;4929285;28;54039;-72
2023/12/07 18:09:41;;;;;;;;;38.25;32.50;;;;;19.38;42.28;100351.38;4934198;28;46232;-72
2023/12/07 18:12:06;;;;;;;;;42.25;33.50;;;;;19.50;42.08;100352.59;4935854;28;45379;-72
2023/12/07 18:14:32;;;;;;;;;40.25;33.00;;;;;19.50;42.03;100354.41;4936190;28;47251;-72
2023/12/07 18:16:57;;;;;;;;;44.75;35.50;;;;;19.46;42.29;100351.31;4936455;28;45388;-72
2023/12/07 18:19:22;;;;;;;;;43.00;34.25;;;;;19.51;42.11;100364.00;4936526;28;45331;-72
2023/12/07 18:21:48;;;;;;;;;40.50;34.00;;;;;19.52;42.34;100370.91;4936496;28;45411;-69
2023/12/07 18:24:13;;;;;;;;;36.50;31.50;;;;;19.53;42.31;100353.25;4936375;28;47062;-72
2023/12/07 18:26:38;;;;;;;;;37.50;33.50;;;;;19.50;42.24;100347.34;4951178;28;45981;-72
2023/12/07 18:29:06;;;;;;;;;36.00;32.00;;;;;19.53;42.28;100347.97;4935389;28;45386;-72
2023/12/07 18:31:32;;;;;;;;;36.25;31.75;;;;;19.46;42.12;100337.31;4936260;28;45478;-70
2023/12/07 18:33:57;;;;;;;;;37.25;31.00;;;;;19.53;42.35;100351.44;4935964;28;47168;-70
2023/12/07 18:36:23;;;;;;;;;35.75;32.00;;;;;19.55;42.44;100340.69;4935862;28;58804;-69
2023/12/07 18:38:48;;;;;;;;;34.50;29.75;;;;;19.54;42.43;100347.81;4935963;28;45332;-71
2023/12/07 18:41:13;;;;;;;;;33.25;30.25;;;;;19.55;42.43;100333.59;4935937;28;58324;-71
2023/12/07 18:43:38;;;;;;;;;29.50;28.75;;;;;19.39;42.42;100305.50;4936109;28;46202;-69
2023/12/07 18:46:05;;;;;;;;;35.00;28.50;;;;;19.43;42.51;100298.06;4936092;28;45516;-71
2023/12/07 18:48:31;;;;;;;;;33.50;30.00;;;;;19.54;42.44;100310.03;4935633;28;45397;-71
2023/12/07 18:50:58;;;;;;;;;28.75;28.75;;;;;19.50;42.55;100299.84;4936418;28;45558;-71
2023/12/07 18:53:25;;;;;;;;;30.00;28.25;;;;;19.57;42.66;100299.94;4936065;28;46967;-70
2023/12/07 18:55:50;;;;;;;;;34.00;30.00;;;;;19.57;42.89;100307.84;4937349;28;45894;-71
2023/12/07 18:58:15;;;;;;;;;32.50;29.00;;;;;19.58;42.35;100306.88;4939257;28;45382;-72
2023/12/07 19:00:41;;;;;;;;;28.75;25.00;;;;;19.49;42.56;100292.09;4939404;28;50876;-71
2023/12/07 19:03:06;;;;;;;;;24.75;22.50;;;;;19.59;42.59;100302.41;4938702;28;46241;-72
2023/12/07 19:05:32;;;;;;;;;35.25;27.50;;;;;19.56;42.57;100306.22;4939201;28;45390;-72
2023/12/07 19:07:57;;;;;;;;;29.00;26.00;;;;;19.49;42.91;100287.63;4939133;28;45624;-70
2023/12/07 19:10:22;;;;;;;;;29.00;26.75;;;;;19.58;42.65;100312.16;4939301;28;45291;-72
2023/12/07 19:12:48;;;;;;;;;27.00;25.00;;;;;19.60;42.92;100314.59;4938891;28;46000;-72
2023/12/07 19:15:13;;;;;;;;;26.25;25.50;;;;;19.60;42.72;100306.69;4938209;28;69190;-70
2023/12/07 19:17:39;;;;;;;;;29.75;24.25;;;;;19.60;42.82;100312.78;4938915;28;45549;-73
2023/12/07 19:20:05;;;;;;;;;26.75;23.75;;;;;19.61;42.50;100327.63;4938554;28;54677;-71
2023/12/07 19:22:31;;;;;;;;;27.00;25.00;;;;;19.62;42.60;100341.66;4938938;28;46118;-71
2023/12/07 19:24:57;;;;;;;;;31.25;26.50;;;;;19.61;42.80;100324.16;4938640;28;45455;-71
2023/12/07 19:27:22;;;;;;;;;25.00;23.00;;;;;19.61;42.73;100345.28;4939157;28;45417;-69
2023/12/07 19:29:48;;;;;;;;;31.75;27.25;;;;;19.63;42.86;100322.16;4939200;28;45349;-70
2023/12/07 19:32:13;;;;;;;;;23.00;22.25;;;;;19.64;42.80;100323.00;4938487;28;46079;-70
2023/12/07 19:34:39;;;;;;;;;24.50;21.75;;;;;19.64;42.98;100331.75;4938536;28;45544;-71
2023/12/07 19:37:04;;;;;;;;;24.75;22.25;;;;;19.65;42.99;100319.38;4939228;28;45315;-71
2023/12/07 19:39:33;;;;;;;;;26.00;22.50;;;;;19.62;42.95;100315.25;4938782;28;45290;-70
2023/12/07 19:41:58;;;;;;;;;23.25;21.50;;;;;19.66;43.15;100307.81;4938487;28;46964;-70
2023/12/07 19:44:23;;;;;;;;;22.50;19.75;;;;;19.65;42.99;100295.63;4929328;28;45425;-70
2023/12/07 19:46:50;;;;;;;;;25.00;21.50;;;;;19.67;42.77;100304.16;4929085;28;47563;-69
2023/12/07 19:49:15;;;;;;;;;25.00;19.50;;;;;19.64;43.18;100300.06;4934530;28;45557;-70
2023/12/07 19:51:41;;;;;;;;;18.50;18.50;;;;;19.67;43.16;100315.53;4934125;28;48858;-70
2023/12/07 19:54:08;;;;;;;;;23.50;22.00;;;;;19.70;43.12;100322.28;4934247;28;45366;-70
2023/12/07 19:56:33;;;;;;;;;25.25;20.00;;;;;19.70;43.22;100325.75;4934019;28;45400;-70
2023/12/07 19:58:58;;;;;;;;;23.25;22.00;;;;;19.67;43.47;100323.44;4933988;28;45583;-69
2023/12/07 20:01:25;;;;;;;;;20.50;19.50;;;;;19.72;43.35;100329.00;4933293;28;47376;-70
2023/12/07 20:03:51;;;;;;;;;19.25;19.25;;;;;19.72;43.26;100323.72;4934275;28;45697;-70
2023/12/07 20:06:16;;;;;;;;;23.00;20.25;;;;;19.74;43.50;100320.94;4932694;28;45496;-69
2023/12/07 20:08:42;;;;;;;;;17.50;14.25;;;;;19.76;43.91;100326.03;4932822;28;45530;-70
2023/12/07 20:11:07;;;;;;;;;22.50;20.25;;;;;19.65;44.14;100309.59;4933389;28;47099;-70
2023/12/07 20:13:33;;;;;;;;;25.50;21.50;;;;;19.64;44.38;100296.59;4933807;28;45346;-70
2023/12/07 20:15:58;;;;;;;;;23.50;20.00;;;;;19.75;44.62;100316.47;4933675;28;45347;-70
2023/12/07 20:18:24;;;;;;;;;24.25;22.00;;;;;19.64;45.46;100291.31;4936758;28;45512;-71
2023/12/07 20:20:49;;;;;;;;;21.75;20.75;;;;;19.73;45.38;100299.00;4936802;28;46678;-72
2023/12/07 20:23:15;;;;;;;;;20.00;16.00;;;;;19.75;44.90;100317.28;4936322;28;45387;-71
2023/12/07 20:25:40;;;;;;;;;17.25;16.00;;;;;19.70;44.93;100320.47;4938158;28;45469;-71
2023/12/07 20:28:05;;;;;;;;;19.25;18.50;;;;;19.73;45.12;100311.38;4937530;28;49706;-72
2023/12/07 20:30:31;;;;;;;;;16.25;15.75;;;;;19.73;45.06;100308.72;4937641;28;45326;-72
2023/12/07 20:32:56;;;;;;;;;16.75;16.25;;;;;19.70;45.31;100294.06;4937581;28;45398;-71
2023/12/07 20:35:23;;;;;;;;;15.25;15.25;;;;;19.76;46.02;100286.44;4937483;28;45327;-72
2023/12/07 20:37:48;;;;;;;;;17.25;16.00;;;;;19.71;46.86;100294.88;4937478;28;45415;-72
2023/12/07 20:40:13;;;;;;;;;15.50;15.00;;;;;19.73;46.93;100292.88;4937219;28;46459;-71
2023/12/07 20:42:39;;;;;;;;;13.75;13.75;;;;;19.80;47.14;100287.72;4937938;28;45227;-72
2023/12/07 20:45:04;;;;;;;;;16.50;14.25;;;;;19.83;47.46;100245.13;4937112;28;45370;-73
2023/12/07 20:47:30;;;;;;;;;16.75;13.50;;;;;19.84;47.30;100244.94;4937771;28;45267;-73
2023/12/07 20:49:55;;;;;;;;;12.75;12.75;;;;;19.87;47.57;100238.50;4937479;28;48292;-73
2023/12/07 20:52:20;;;;;;;;;14.75;14.75;;;;;19.77;47.86;100215.00;4937573;28;45243;-72
2023/12/07 20:54:46;;;;;;;;;17.50;14.00;;;;;19.81;47.57;100245.31;4937893;28;45315;-72
2023/12/07 20:57:12;;;;;;;;;12.00;12.00;;;;;19.73;47.75;100262.03;4937819;28;45391;-72
2023/12/07 20:59:38;;;;;;;;;16.00;13.50;;;;;19.92;48.05;100288.09;4937285;28;46370;-72
2023/12/07 21:02:03;;;;;;;;;10.50;10.50;;;;;19.88;48.08;100277.06;4937330;28;48963;-74
2023/12/07 21:04:28;;;;;;;;;12.00;11.25;;;;;19.83;48.00;100264.41;4937516;28;45591;-73
2023/12/07 21:06:54;;;;;;;;;13.25;12.25;;;;;19.93;47.73;100261.50;4937047;28;45479;-74
2023/12/07 21:09:19;;;;;;;;;13.25;12.00;;;;;19.95;48.08;100274.56;4937290;28;46010;-72
2023/12/07 21:11:45;;;;;;;;;13.25;10.50;;;;;19.77;48.25;100236.13;4936441;28;52393;-72
2023/12/07 21:14:10;;;;;;;;;13.25;11.00;;;;;19.90;48.14;100234.66;4937177;28;45570;-72
2023/12/07 21:16:35;;;;;;;;;13.00;12.25;;;;;19.72;48.16;100197.03;4937343;28;45310;-72
2023/12/07 21:19:01;;;;;;;;;13.75;12.00;;;;;19.85;48.11;100187.69;4937342;28;45818;-72
2023/12/07 21:21:26;;;;;;;;;12.25;11.50;;;;;19.82;47.97;100193.34;4937291;28;45382;-70
2023/12/07 21:23:51;;;;;;;;;13.25;10.50;;;;;19.93;48.20;100211.34;4952126;28;45453;-68
2023/12/07 21:26:17;;;;;;;;;11.75;11.75;;;;;19.85;47.83;100182.41;4937416;28;45522;-69
2023/12/07 21:28:42;;;;;;;;;10.00;10.00;;;;;19.91;48.06;100179.03;4936820;28;46957;-68
2023/12/07 21:31:08;;;;;;;;;17.25;11.25;;;;;19.96;48.27;100179.31;4936789;28;45358;-68
2023/12/07 21:33:35;;;;;;;;;11.75;11.00;;;;;19.90;48.12;100176.59;4936765;28;45479;-68
2023/12/07 21:36:01;;;;;;;;;12.00;10.50;;;;;19.93;48.27;100184.16;4937301;28;45415;-70
2023/12/07 21:38:27;;;;;;;;;23.00;16.50;;;;;19.98;48.29;100199.44;4936681;28;45893;-70
2023/12/07 21:40:52;;;;;;;;;20.25;16.75;;;;;19.97;48.16;100235.59;4936952;28;51947;-70
2023/12/07 21:43:17;;;;;;;;;13.75;10.75;;;;;19.95;48.25;100214.66;4936714;28;45364;-69
2023/12/07 21:45:42;;;;;;;;;14.75;11.75;;;;;19.95;48.26;100225.22;4937140;28;45303;-69
2023/12/07 21:48:08;;;;;;;;;20.00;14.75;;;;;19.92;47.88;100188.59;4936716;28;45428;-69
2023/12/07 21:50:34;;;;;;;;;16.00;12.00;;;;;19.93;48.10;100203.44;4936935;28;45429;-69
2023/12/07 21:52:59;;;;;;;;;15.00;13.50;;;;;19.97;48.22;100193.34;4936818;28;45394;-70
2023/12/07 21:55:25;;;;;;;;;12.50;12.50;;;;;19.96;48.27;100208.34;4937077;28;45353;-70
2023/12/07 21:57:50;;;;;;;;;10.50;9.75;;;;;19.96;48.18;100218.09;4936202;28;46205;-69
2023/12/07 22:00:16;;;;;;;;;18.00;14.50;;;;;19.92;48.18;100222.09;4936678;28;45435;-69
2023/12/07 22:02:42;;;;;;;;;14.75;12.50;;;;;19.88;48.00;100218.19;4936635;28;45783;-70
2023/12/07 22:05:07;;;;;;;;;14.75;12.00;;;;;19.95;48.29;100225.22;4936585;28;45514;-70
2023/12/07 22:07:32;;;;;;;;;14.00;14.00;;;;;19.98;48.00;100231.13;4936098;28;46091;-70
2023/12/07 22:09:58;;;;;;;;;14.75;12.50;;;;;19.98;48.06;100239.88;4936684;28;45947;-69
2023/12/07 22:12:23;;;;;;;;;9.25;9.25;;;;;19.97;48.32;100238.22;4936498;28;45447;-69
2023/12/07 22:14:48;;;;;;;;;13.00;12.00;;;;;19.98;48.30;100229.31;4936952;28;45364;-70
2023/12/07 22:17:14;;;;;;;;;12.00;11.00;;;;;19.98;48.06;100231.13;4936564;28;46354;-69
2023/12/07 22:19:39;;;;;;;;;10.75;10.50;;;;;19.98;47.96;100231.94;4936269;28;45437;-69
2023/12/07 22:22:04;;;;;;;;;13.50;11.00;;;;;19.98;48.22;100237.22;4936607;28;45714;-69
2023/12/07 22:24:30;;;;;;;;;13.25;11.00;;;;;19.98;48.11;100199.44;4937023;28;45218;-69
2023/12/07 22:26:55;;;;;;;;;11.00;9.50;;;;;19.98;48.14;100226.66;4930153;28;46049;-68
2023/12/07 22:29:21;;;;;;;;;11.25;10.00;;;;;19.96;48.20;100234.75;4928476;28;45444;-68
2023/12/07 22:31:46;;;;;;;;;12.75;11.25;;;;;19.99;48.24;100216.91;4934742;28;45339;-68
2023/12/07 22:34:11;;;;;;;;;12.00;10.75;;;;;19.99;48.39;100219.53;4935167;28;45629;-68
2023/12/07 22:36:37;;;;;;;;;10.50;10.50;;;;;19.89;48.07;100225.09;4934731;28;56329;-68
2023/12/07 22:39:02;;;;;;;;;12.25;10.50;;;;;19.98;48.42;100239.06;4933949;28;45416;-69
2023/12/07 22:41:27;;;;;;;;;9.50;9.50;;;;;19.91;48.07;100244.22;4933831;28;45779;-69
2023/12/07 22:43:53;;;;;;;;;13.25;10.00;;;;;19.99;48.08;100248.59;4934568;28;50757;-69
2023/12/07 22:46:19;;;;;;;;;14.75;11.00;;;;;19.99;48.31;100256.50;4933729;28;46262;-69
2023/12/07 22:48:44;;;;;;;;;12.00;11.75;;;;;19.92;48.29;100244.06;4934977;28;45592;-69
2023/12/07 22:51:09;;;;;;;;;13.00;9.50;;;;;19.93;48.44;100252.78;4934845;28;45526;-69
2023/12/07 22:53:35;;;;;;;;;10.50;9.00;;;;;19.99;48.31;100267.91;4935628;28;45706;-68
2023/12/07 22:56:00;;;;;;;;;11.75;9.00;;;;;19.96;48.16;100253.25;4934292;28;50302;-69
2023/12/07 22:58:26;;;;;;;;;12.25;11.25;;;;;19.99;48.24;100265.25;4936189;28;51794;-69
2023/12/07 23:00:51;;;;;;;;;8.75;8.50;;;;;19.96;47.93;100255.06;4939655;28;45405;-74
2023/12/07 23:03:17;;;;;;;;;13.75;11.25;;;;;20.00;48.15;100263.44;4939286;28;45554;-75
2023/12/07 23:05:43;;;;;;;;;12.25;9.25;;;;;19.99;48.13;100273.19;4939154;28;46264;-72
2023/12/07 23:08:08;;;;;;;;;10.75;10.00;;;;;19.99;48.27;100282.91;4939668;28;45385;-72
2023/12/07 23:10:34;;;;;;;;;10.25;9.75;;;;;19.96;48.23;100286.75;4938172;28;45419;-72
2023/12/07 23:12:59;;;;;;;;;10.00;8.00;;;;;19.97;47.84;100291.03;4939408;28;45232;-72
2023/12/07 23:15:25;;;;;;;;;10.75;9.25;;;;;19.92;47.83;100296.84;4939581;28;46066;-73
2023/12/07 23:17:50;;;;;;;;;10.50;9.50;;;;;19.95;47.92;100306.25;4939417;28;50156;-72
2023/12/07 23:20:16;;;;;;;;;10.25;8.50;;;;;19.93;47.80;100309.03;4939523;28;45654;-72
2023/12/07 23:22:41;;;;;;;;;12.00;8.25;;;;;19.92;47.91;100309.22;4939505;28;45383;-72
2023/12/07 23:25:07;;;;;;;;;11.50;9.50;;;;;19.85;47.68;100298.56;4939083;28;45919;-72
2023/12/07 23:27:32;;;;;;;;;8.00;8.00;;;;;19.89;47.76;100322.78;4939314;28;45361;-72
2023/12/07 23:29:57;;;;;;;;;11.00;7.50;;;;;19.89;47.74;100320.16;4939619;28;45213;-71
2023/12/07 23:32:23;;;;;;;;;8.75;7.75;;;;;19.87;47.53;100311.59;4939032;28;46957;-73
2023/12/07 23:34:49;;;;;;;;;9.25;8.00;;;;;19.86;47.54;100331.88;4938700;28;54141;-72
2023/12/07 23:37:15;;;;;;;;;6.50;6.50;;;;;19.84;47.52;100325.97;4939080;28;45291;-72
2023/12/07 23:39:40;;;;;;;;;9.00;9.00;;;;;19.83;47.69;100324.31;4939208;28;45356;-72
2023/12/07 23:42:06;;;;;;;;;8.25;8.25;;;;;19.78;47.62;100321.38;4938104;28;45386;-72
2023/12/07 23:44:31;;;;;;;;;7.75;6.50;;;;;19.81;47.64;100329.78;4939391;28;46134;-72
2023/12/07 23:46:57;;;;;;;;;9.00;9.00;;;;;19.79;47.29;100325.69;4938955;28;45508;-72
2023/12/07 23:49:22;;;;;;;;;9.50;8.00;;;;;19.78;47.42;100319.56;4939280;28;45335;-72
2023/12/07 23:51:47;;;;;;;;;7.25;7.25;;;;;19.76;47.37;100321.56;4953085;28;57814;-71
2023/12/07 23:54:13;;;;;;;;;10.00;9.25;;;;;19.76;47.57;100328.66;4939147;28;46075;-72
2023/12/07 23:56:38;;;;;;;;;7.25;6.50;;;;;19.77;47.32;100338.25;4938999;28;45339;-72
2023/12/07 23:59:03;;;;;;;;;7.00;7.00;;;;;19.75;47.14;100338.41;4938959;28;45318;-72
